Time;durP1;ratioP1;P1;durP2;ratioP2;P2;SDS_P1;SDS_P2;PMS_P1;PMS_P2;Temp;Humidity;BMP_temperature;BMP_pressure;BME280_temperature;BME280_humidity;BME280_pressure;Samples;Min_cycle;Max_cycle;Signal;HPM_P1;HPM_P2
2023/05/14 00:01:50;;;;;;;15.52;8.95;;;;;;;;;;5085851;28;20039;-65
2023/05/14 00:04:18;;;;;;;19.75;8.98;;;;;;;;;;5082406;28;20044;-65
2023/05/14 00:06:44;;;;;;;15.18;9.77;;;;;;;;;;5084493;28;20056;-65
2023/05/14 00:09:11;;;;;;;13.30;8.95;;;;;;;;;;5086719;28;20480;-65
2023/05/14 00:11:38;;;;;;;14.43;8.20;;;;;;;;;;5084557;28;20141;-65
2023/05/14 00:14:04;;;;;;;16.42;8.45;;;;;;;;;;5062525;28;20470;-65
2023/05/14 00:16:30;;;;;;;11.80;8.38;;;;;;;;;;5068663;28;20059;-65
2023/05/14 00:18:56;;;;;;;16.48;8.70;;;;;;;;;;5065659;28;20044;-65
2023/05/14 00:21:22;;;;;;;13.15;7.47;;;;;;;;;;5084096;28;20048;-65
2023/05/14 00:23:49;;;;;;;13.10;8.30;;;;;;;;;;5067068;28;20036;-65
2023/05/14 00:26:15;;;;;;;15.13;7.32;;;;;;;;;;5066298;28;20075;-66
2023/05/14 00:28:41;;;;;;;15.05;8.60;;;;;;;;;;5065062;28;20043;-65
2023/05/14 00:31:07;;;;;;;12.50;7.65;;;;;;;;;;5085218;28;20056;-66
2023/05/14 00:33:34;;;;;;;12.35;7.43;;;;;;;;;;5069104;28;20101;-65
2023/05/14 00:36:00;;;;;;;11.48;6.85;;;;;;;;;;5065602;28;20067;-66
2023/05/14 00:38:27;;;;;;;14.95;7.60;;;;;;;;;;5065097;28;20067;-65
2023/05/14 00:40:53;;;;;;;14.23;7.47;;;;;;;;;;5068855;28;20075;-65
2023/05/14 00:43:21;;;;;;;12.30;7.30;;;;;;;;;;5088039;28;20051;-66
2023/05/14 00:45:50;;;;;;;9.95;6.47;;;;;;;;;;5078726;28;20499;-65
2023/05/14 00:48:16;;;;;;;11.75;7.55;;;;;;;;;;5073381;28;21571;-65
2023/05/14 00:50:42;;;;;;;9.82;7.30;;;;;;;;;;5068033;28;20061;-65
2023/05/14 00:53:09;;;;;;;10.95;7.05;;;;;;;;;;5089461;28;20036;-65
2023/05/14 00:55:40;;;;;;;10.50;6.72;;;;;;;;;;5070465;28;20056;-66
2023/05/14 00:58:08;;;;;;;10.73;7.03;;;;;;;;;;5089294;28;20043;-66
2023/05/14 01:00:35;;;;;;;11.00;6.30;;;;;;;;;;5071223;28;20127;-65
2023/05/14 01:03:01;;;;;;;11.93;6.32;;;;;;;;;;5088689;28;20494;-65
2023/05/14 01:05:32;;;;;;;10.55;6.85;;;;;;;;;;5073643;28;21512;-65
2023/05/14 01:08:05;;;;;;;13.88;7.57;;;;;;;;;;5090788;27;20170;-65
2023/05/14 01:10:38;;;;;;;13.52;6.70;;;;;;;;;;5086863;28;20059;-66
2023/05/14 01:13:12;;;;;;;11.38;6.88;;;;;;;;;;5071879;28;20055;-66
2023/05/14 01:15:40;;;;;;;15.50;7.97;;;;;;;;;;5069722;28;20063;-65
2023/05/14 01:18:09;;;;;;;14.73;7.82;;;;;;;;;;5073348;28;20052;-65
2023/05/14 01:20:35;;;;;;;13.00;8.00;;;;;;;;;;5074328;28;20056;-65
2023/05/14 01:23:02;;;;;;;15.27;8.68;;;;;;;;;;5085277;28;20123;-65
2023/05/14 01:25:28;;;;;;;17.42;8.95;;;;;;;;;;5089438;27;20043;-66
2023/05/14 01:28:06;;;;;;;10.38;7.22;;;;;;;;;;5073917;27;20055;-65
2023/05/14 01:30:33;;;;;;;12.73;7.43;;;;;;;;;;5059276;27;20100;-66
2023/05/14 01:33:02;;;;;;;16.27;8.18;;;;;;;;;;5092248;28;20449;-65
2023/05/14 01:35:29;;;;;;;22.10;9.35;;;;;;;;;;5071686;28;20076;-66
2023/05/14 01:37:56;;;;;;;14.13;9.20;;;;;;;;;;5089041;27;20059;-65
2023/05/14 01:40:23;;;;;;;21.17;11.48;;;;;;;;;;5089304;27;20035;-65
2023/05/14 01:42:50;;;;;;;21.52;11.27;;;;;;;;;;5090659;27;20044;-65
2023/05/14 01:45:17;;;;;;;18.85;11.27;;;;;;;;;;5090539;28;20047;-66
2023/05/14 01:47:43;;;;;;;18.65;10.50;;;;;;;;;;5092011;28;20112;-65
2023/05/14 01:50:10;;;;;;;16.08;10.68;;;;;;;;;;5092682;28;20151;-66
2023/05/14 01:52:36;;;;;;;21.63;11.50;;;;;;;;;;5071296;28;20044;-65
2023/05/14 01:55:03;;;;;;;16.63;10.23;;;;;;;;;;5066433;27;20411;-65
2023/05/14 01:57:30;;;;;;;21.13;9.18;;;;;;;;;;5084960;27;20059;-65
2023/05/14 01:59:56;;;;;;;18.83;9.52;;;;;;;;;;5086905;28;20136;-65
2023/05/14 02:02:22;;;;;;;18.05;8.82;;;;;;;;;;5068585;28;20530;-65
2023/05/14 02:04:48;;;;;;;22.45;8.88;;;;;;;;;;5088703;28;20098;-65
2023/05/14 02:07:15;;;;;;;17.27;7.78;;;;;;;;;;5068047;28;20092;-65
2023/05/14 02:09:41;;;;;;;21.95;8.85;;;;;;;;;;5084102;28;20402;-65
2023/05/14 02:12:08;;;;;;;15.38;8.07;;;;;;;;;;5067543;27;20093;-65
2023/05/14 02:14:34;;;;;;;17.42;7.57;;;;;;;;;;5087881;28;20171;-65
2023/05/14 02:17:01;;;;;;;16.00;8.18;;;;;;;;;;5069684;28;20047;-65
2023/05/14 02:19:27;;;;;;;18.25;9.07;;;;;;;;;;5072278;28;20100;-65
2023/05/14 02:21:53;;;;;;;16.17;7.38;;;;;;;;;;5077281;28;20093;-65
2023/05/14 02:24:19;;;;;;;16.23;7.50;;;;;;;;;;5072647;28;20072;-65
2023/05/14 02:26:45;;;;;;;17.02;8.45;;;;;;;;;;5070213;28;20059;-65
2023/05/14 02:29:11;;;;;;;21.25;8.05;;;;;;;;;;5070848;28;20600;-65
2023/05/14 02:31:38;;;;;;;18.52;8.32;;;;;;;;;;5066127;28;20116;-65
2023/05/14 02:34:05;;;;;;;20.15;9.13;;;;;;;;;;5084921;28;20825;-65
2023/05/14 02:36:32;;;;;;;23.50;9.13;;;;;;;;;;5084730;28;20059;-65
2023/05/14 02:38:59;;;;;;;16.17;8.88;;;;;;;;;;5069342;28;20048;-65
2023/05/14 02:41:26;;;;;;;15.85;8.38;;;;;;;;;;5064880;28;21960;-65
2023/05/14 02:43:52;;;;;;;19.85;9.88;;;;;;;;;;5084560;28;20055;-66
2023/05/14 02:46:19;;;;;;;23.60;9.25;;;;;;;;;;5086391;28;20093;-65
2023/05/14 02:48:45;;;;;;;20.13;9.07;;;;;;;;;;5087029;27;20834;-66
2023/05/14 02:51:11;;;;;;;19.33;10.27;;;;;;;;;;5087884;28;20044;-65
2023/05/14 02:53:37;;;;;;;20.33;9.75;;;;;;;;;;5065940;28;20089;-65
2023/05/14 02:56:04;;;;;;;19.60;9.75;;;;;;;;;;5068790;28;20055;-65
2023/05/14 02:58:30;;;;;;;17.42;8.90;;;;;;;;;;5086563;28;20036;-66
2023/05/14 03:00:56;;;;;;;16.85;8.75;;;;;;;;;;5066525;28;20047;-65
2023/05/14 03:03:22;;;;;;;18.63;9.25;;;;;;;;;;5065786;28;20044;-65
2023/05/14 03:05:48;;;;;;;18.17;8.88;;;;;;;;;;5083481;27;20044;-66
2023/05/14 03:08:15;;;;;;;17.60;8.68;;;;;;;;;;5064525;28;20099;-66
2023/05/14 03:10:41;;;;;;;21.08;9.40;;;;;;;;;;5086007;28;20093;-66
2023/05/14 03:13:07;;;;;;;18.88;9.45;;;;;;;;;;5067275;28;20051;-66
2023/05/14 03:15:34;;;;;;;15.77;9.20;;;;;;;;;;5085335;28;20036;-65
2023/05/14 03:18:00;;;;;;;23.05;9.88;;;;;;;;;;5087564;28;20063;-66
2023/05/14 03:20:26;;;;;;;16.73;8.55;;;;;;;;;;5066215;28;20082;-66
2023/05/14 03:22:53;;;;;;;18.65;9.45;;;;;;;;;;5067693;28;20097;-65
2023/05/14 03:25:19;;;;;;;20.63;8.98;;;;;;;;;;5066413;28;20052;-65
2023/05/14 03:27:45;;;;;;;16.02;8.15;;;;;;;;;;5085845;28;20054;-65
2023/05/14 03:30:12;;;;;;;19.25;8.23;;;;;;;;;;5062677;28;20357;-66
2023/05/14 03:32:38;;;;;;;21.63;7.55;;;;;;;;;;5065365;28;20040;-65
2023/05/14 03:35:04;;;;;;;15.38;7.97;;;;;;;;;;5064472;28;20090;-66
2023/05/14 03:37:30;;;;;;;17.98;8.25;;;;;;;;;;5064687;28;20044;-65
2023/05/14 03:39:57;;;;;;;22.38;9.00;;;;;;;;;;5087158;27;20042;-65
2023/05/14 03:42:23;;;;;;;25.17;9.98;;;;;;;;;;5065472;28;20058;-65
2023/05/14 03:44:49;;;;;;;18.55;9.60;;;;;;;;;;5065142;28;20101;-65
2023/05/14 03:47:15;;;;;;;20.60;10.02;;;;;;;;;;5086338;28;20495;-65
2023/05/14 03:49:41;;;;;;;26.55;10.23;;;;;;;;;;5066689;28;20048;-65
2023/05/14 03:52:07;;;;;;;30.35;10.48;;;;;;;;;;5084633;27;20044;-65
2023/05/14 03:54:33;;;;;;;22.27;10.05;;;;;;;;;;5089468;28;20043;-65
2023/05/14 03:57:00;;;;;;;24.10;10.57;;;;;;;;;;5066114;28;20450;-66
2023/05/14 03:59:27;;;;;;;21.20;10.35;;;;;;;;;;5067401;28;20039;-65
2023/05/14 04:01:54;;;;;;;21.10;11.02;;;;;;;;;;5069414;28;20068;-65
2023/05/14 04:04:20;;;;;;;23.83;12.05;;;;;;;;;;5069702;28;20135;-66
2023/05/14 04:06:46;;;;;;;28.20;11.48;;;;;;;;;;5069948;28;20055;-65
2023/05/14 04:09:13;;;;;;;18.88;10.48;;;;;;;;;;5083947;28;20086;-65
2023/05/14 04:11:39;;;;;;;23.60;12.48;;;;;;;;;;5082743;28;20466;-65
2023/05/14 04:14:05;;;;;;;38.53;12.65;;;;;;;;;;5068466;28;20550;-65
2023/05/14 04:16:31;;;;;;;27.92;14.05;;;;;;;;;;5073342;28;20040;-66
2023/05/14 04:18:58;;;;;;;24.70;12.90;;;;;;;;;;5089876;27;21257;-65
2023/05/14 04:21:24;;;;;;;21.70;11.90;;;;;;;;;;5088187;28;20113;-65
2023/05/14 04:23:50;;;;;;;30.13;13.43;;;;;;;;;;5087182;27;20123;-65
2023/05/14 04:26:17;;;;;;;25.10;12.60;;;;;;;;;;5070349;28;20075;-65
2023/05/14 04:28:43;;;;;;;26.42;13.48;;;;;;;;;;5096327;27;20044;-66
2023/05/14 04:31:09;;;;;;;21.15;11.63;;;;;;;;;;5099442;27;20051;-66
2023/05/14 04:33:35;;;;;;;23.67;11.57;;;;;;;;;;5071704;28;20055;-66
2023/05/14 04:36:03;;;;;;;21.45;11.32;;;;;;;;;;5073255;28;20178;-66
2023/05/14 04:38:30;;;;;;;23.15;11.30;;;;;;;;;;5070758;28;20496;-66
2023/05/14 04:40:57;;;;;;;21.77;10.00;;;;;;;;;;5073115;28;20032;-65
2023/05/14 04:43:23;;;;;;;16.70;7.85;;;;;;;;;;5075568;28;20093;-66
2023/05/14 04:45:51;;;;;;;17.80;8.63;;;;;;;;;;5074688;28;20045;-66
2023/05/14 04:48:17;;;;;;;16.48;7.55;;;;;;;;;;5068062;28;20140;-66
2023/05/14 04:50:43;;;;;;;20.35;7.72;;;;;;;;;;5071796;28;20041;-65
2023/05/14 04:53:10;;;;;;;16.52;7.80;;;;;;;;;;5073337;28;20044;-66
2023/05/14 04:55:36;;;;;;;17.77;6.68;;;;;;;;;;5072707;28;20073;-66
2023/05/14 04:58:02;;;;;;;14.85;7.07;;;;;;;;;;5073869;28;20049;-68
2023/05/14 05:00:29;;;;;;;20.75;7.53;;;;;;;;;;5070599;28;20109;-66
2023/05/14 05:02:55;;;;;;;16.45;8.27;;;;;;;;;;5072023;28;20037;-65
2023/05/14 05:05:21;;;;;;;14.88;7.97;;;;;;;;;;5074495;28;20119;-65
2023/05/14 05:07:47;;;;;;;15.45;7.47;;;;;;;;;;5073556;28;20082;-65
2023/05/14 05:10:14;;;;;;;22.27;7.07;;;;;;;;;;5074347;28;20059;-65
2023/05/14 05:12:40;;;;;;;21.05;8.10;;;;;;;;;;5074685;28;20535;-65
2023/05/14 05:15:08;;;;;;;19.27;8.15;;;;;;;;;;5072570;28;20064;-65
2023/05/14 05:17:34;;;;;;;20.85;8.30;;;;;;;;;;5071142;28;20424;-66
2023/05/14 05:20:01;;;;;;;20.52;9.45;;;;;;;;;;5072575;28;20036;-66
2023/05/14 05:22:27;;;;;;;17.75;8.75;;;;;;;;;;5071921;28;20059;-66
2023/05/14 05:24:53;;;;;;;24.33;10.25;;;;;;;;;;5075160;28;20492;-65
2023/05/14 05:27:20;;;;;;;21.85;9.82;;;;;;;;;;5073402;28;20518;-66
2023/05/14 05:29:47;;;;;;;23.10;11.52;;;;;;;;;;5070116;28;20127;-65
2023/05/14 05:32:13;;;;;;;18.77;10.77;;;;;;;;;;5073565;28;20044;-66
2023/05/14 05:34:39;;;;;;;21.95;11.38;;;;;;;;;;5073277;28;20101;-66
2023/05/14 05:37:05;;;;;;;27.73;14.05;;;;;;;;;;5073915;28;20131;-65
2023/05/14 05:39:33;;;;;;;24.63;12.13;;;;;;;;;;5073738;28;20462;-66
2023/05/14 05:42:01;;;;;;;24.90;12.95;;;;;;;;;;5074902;28;20123;-66
2023/05/14 05:44:27;;;;;;;31.55;13.73;;;;;;;;;;5072518;28;20408;-65
2023/05/14 05:46:55;;;;;;;21.42;12.82;;;;;;;;;;5072470;28;20044;-66
2023/05/14 05:49:22;;;;;;;27.83;11.93;;;;;;;;;;5072969;28;20305;-66
2023/05/14 05:51:48;;;;;;;23.75;10.50;;;;;;;;;;5071061;28;20040;-66
2023/05/14 05:54:14;;;;;;;24.42;11.35;;;;;;;;;;5072338;28;20433;-66
2023/05/14 05:56:40;;;;;;;25.02;10.63;;;;;;;;;;5073884;28;20538;-65
2023/05/14 05:59:06;;;;;;;20.40;10.02;;;;;;;;;;5069614;28;20063;-66
2023/05/14 06:01:33;;;;;;;18.55;9.40;;;;;;;;;;5070797;28;20040;-65
2023/05/14 06:03:59;;;;;;;24.48;9.73;;;;;;;;;;5071876;28;20105;-65
2023/05/14 06:06:25;;;;;;;20.48;8.10;;;;;;;;;;5074062;28;20040;-66
2023/05/14 06:08:51;;;;;;;16.77;7.50;;;;;;;;;;5071321;28;21707;-66
2023/05/14 06:11:17;;;;;;;17.83;8.07;;;;;;;;;;5056891;28;20048;-66
2023/05/14 06:13:44;;;;;;;20.90;9.35;;;;;;;;;;5072140;28;20047;-66
2023/05/14 06:16:10;;;;;;;19.92;7.88;;;;;;;;;;5076214;28;20079;-66
2023/05/14 06:18:36;;;;;;;16.40;7.63;;;;;;;;;;5070546;28;20045;-66
2023/05/14 06:21:02;;;;;;;16.67;7.72;;;;;;;;;;5074033;28;20075;-65
2023/05/14 06:23:29;;;;;;;22.48;7.60;;;;;;;;;;5072781;28;20094;-66
2023/05/14 06:25:55;;;;;;;24.90;7.90;;;;;;;;;;5069656;28;20047;-66
2023/05/14 06:28:21;;;;;;;16.08;6.80;;;;;;;;;;5069253;28;20119;-66
2023/05/14 06:30:49;;;;;;;13.13;6.90;;;;;;;;;;5067567;28;20052;-66
2023/05/14 06:33:15;;;;;;;13.25;6.22;;;;;;;;;;5080303;28;20108;-66
2023/05/14 06:35:42;;;;;;;16.73;7.07;;;;;;;;;;5074428;28;20043;-66
2023/05/14 06:38:08;;;;;;;12.27;5.90;;;;;;;;;;5073932;28;20915;-66
2023/05/14 06:40:34;;;;;;;23.33;7.30;;;;;;;;;;5073370;28;20522;-66
2023/05/14 06:43:00;;;;;;;14.30;5.85;;;;;;;;;;5092568;27;20036;-66
2023/05/14 06:45:26;;;;;;;13.38;6.07;;;;;;;;;;5077715;28;20176;-66
2023/05/14 06:47:52;;;;;;;14.20;6.28;;;;;;;;;;5090461;28;20738;-66
2023/05/14 06:50:19;;;;;;;15.05;6.38;;;;;;;;;;5093875;28;20079;-66
2023/05/14 06:52:45;;;;;;;19.35;6.63;;;;;;;;;;5096232;27;20032;-66
2023/05/14 06:55:11;;;;;;;19.83;7.57;;;;;;;;;;5074723;28;20048;-66
2023/05/14 06:57:38;;;;;;;16.40;6.55;;;;;;;;;;5093129;28;20032;-66
2023/05/14 07:00:04;;;;;;;15.27;6.97;;;;;;;;;;5094036;28;20079;-66
2023/05/14 07:02:31;;;;;;;16.08;6.47;;;;;;;;;;5089594;28;20035;-66
2023/05/14 07:04:57;;;;;;;24.10;7.03;;;;;;;;;;5093199;27;20051;-68
2023/05/14 07:07:23;;;;;;;16.35;6.10;;;;;;;;;;5070914;28;20447;-71
2023/05/14 07:09:49;;;;;;;17.13;6.88;;;;;;;;;;5069298;27;20094;-71
2023/05/14 07:12:16;;;;;;;17.35;6.50;;;;;;;;;;5091174;27;20039;-68
2023/05/14 07:14:42;;;;;;;12.52;6.18;;;;;;;;;;5093535;28;20100;-68
2023/05/14 07:17:08;;;;;;;14.13;5.82;;;;;;;;;;5097529;27;20123;-68
2023/05/14 07:19:34;;;;;;;17.98;6.57;;;;;;;;;;5073253;28;20175;-69
2023/05/14 07:22:00;;;;;;;21.55;6.88;;;;;;;;;;5089849;28;20058;-68
2023/05/14 07:24:26;;;;;;;14.05;5.32;;;;;;;;;;5089088;27;20385;-68
2023/05/14 07:26:54;;;;;;;10.73;5.75;;;;;;;;;;5069350;27;20059;-69
2023/05/14 07:29:20;;;;;;;15.38;5.53;;;;;;;;;;5089012;28;20036;-68
2023/05/14 07:31:46;;;;;;;13.25;5.97;;;;;;;;;;5072533;27;20498;-69
2023/05/14 07:34:12;;;;;;;11.50;5.43;;;;;;;;;;5065306;28;20183;-69
2023/05/14 07:36:38;;;;;;;13.50;5.95;;;;;;;;;;5070077;28;20646;-68
2023/05/14 07:39:05;;;;;;;14.02;4.85;;;;;;;;;;5074720;28;20051;-68
2023/05/14 07:41:31;;;;;;;26.98;5.97;;;;;;;;;;5067656;28;20041;-68
2023/05/14 07:43:57;;;;;;;12.15;5.03;;;;;;;;;;5066409;28;20049;-68
2023/05/14 07:46:24;;;;;;;17.27;5.13;;;;;;;;;;5067950;28;20052;-68
2023/05/14 07:48:50;;;;;;;15.48;5.65;;;;;;;;;;5070223;28;20048;-68
2023/05/14 07:51:17;;;;;;;14.57;6.22;;;;;;;;;;5069167;28;20040;-70
2023/05/14 07:53:43;;;;;;;16.63;5.65;;;;;;;;;;5068584;28;20124;-70
2023/05/14 07:56:09;;;;;;;16.10;6.15;;;;;;;;;;5068434;28;20049;-70
2023/05/14 07:58:35;;;;;;;17.42;6.88;;;;;;;;;;5071253;28;20472;-70
2023/05/14 08:01:05;;;;;;;16.13;6.18;;;;;;;;;;5075793;28;20109;-69
2023/05/14 08:03:33;;;;;;;12.00;5.50;;;;;;;;;;5073474;28;20120;-66
2023/05/14 08:05:59;;;;;;;14.77;5.85;;;;;;;;;;5068470;28;20063;-67
2023/05/14 08:08:26;;;;;;;13.73;6.40;;;;;;;;;;5066494;28;20105;-67
2023/05/14 08:10:52;;;;;;;15.27;6.93;;;;;;;;;;5069306;28;20045;-67
2023/05/14 08:13:18;;;;;;;14.80;6.25;;;;;;;;;;5078074;28;20051;-67
2023/05/14 08:15:45;;;;;;;14.00;6.85;;;;;;;;;;5068447;28;20032;-67
2023/05/14 08:18:11;;;;;;;15.35;5.93;;;;;;;;;;5071499;28;20099;-67
2023/05/14 08:20:37;;;;;;;17.50;6.05;;;;;;;;;;5069560;28;20044;-67
2023/05/14 08:23:03;;;;;;;18.40;6.18;;;;;;;;;;5068473;28;20101;-66
2023/05/14 08:25:30;;;;;;;14.15;5.68;;;;;;;;;;5069494;28;20048;-67
2023/05/14 08:27:58;;;;;;;14.90;6.50;;;;;;;;;;5067765;28;20036;-68
2023/05/14 08:30:24;;;;;;;13.20;5.57;;;;;;;;;;5070811;28;20116;-66
2023/05/14 08:32:51;;;;;;;17.30;6.15;;;;;;;;;;5074219;28;20056;-67
2023/05/14 08:35:17;;;;;;;23.67;6.20;;;;;;;;;;5071692;28;20082;-67
2023/05/14 08:37:44;;;;;;;12.10;5.10;;;;;;;;;;5069835;28;20175;-67
2023/05/14 08:40:11;;;;;;;14.35;5.28;;;;;;;;;;5068963;28;20142;-67
2023/05/14 08:42:40;;;;;;;16.05;5.82;;;;;;;;;;5069691;28;20249;-67
2023/05/14 08:45:08;;;;;;;16.55;5.30;;;;;;;;;;5072602;28;20055;-67
2023/05/14 08:47:34;;;;;;;14.43;5.47;;;;;;;;;;5089615;28;20047;-67
2023/05/14 08:50:03;;;;;;;14.60;5.97;;;;;;;;;;5076080;28;20047;-67
2023/05/14 08:52:29;;;;;;;14.35;6.07;;;;;;;;;;5069981;28;20119;-67
2023/05/14 08:54:56;;;;;;;15.30;5.38;;;;;;;;;;5090401;28;20035;-67
2023/05/14 08:57:25;;;;;;;13.27;5.68;;;;;;;;;;5091350;28;20036;-67
2023/05/14 08:59:52;;;;;;;12.88;5.15;;;;;;;;;;5055307;28;20040;-68
2023/05/14 09:02:20;;;;;;;15.90;5.38;;;;;;;;;;5071959;28;20055;-67
2023/05/14 09:04:47;;;;;;;15.40;5.78;;;;;;;;;;5093166;28;20040;-67
2023/05/14 09:07:13;;;;;;;13.52;5.60;;;;;;;;;;5075004;28;20487;-67
2023/05/14 09:09:40;;;;;;;17.65;5.60;;;;;;;;;;5076963;27;20078;-65
2023/05/14 09:12:06;;;;;;;15.55;5.20;;;;;;;;;;5096171;27;20044;-65
2023/05/14 09:14:33;;;;;;;11.18;5.43;;;;;;;;;;5093671;28;20464;-65
2023/05/14 09:16:59;;;;;;;14.38;5.10;;;;;;;;;;5095520;28;20123;-65
2023/05/14 09:19:25;;;;;;;11.68;5.88;;;;;;;;;;5100691;27;20043;-65
2023/05/14 09:21:51;;;;;;;13.93;5.63;;;;;;;;;;5077127;28;20043;-65
2023/05/14 09:24:22;;;;;;;11.52;4.47;;;;;;;;;;5103273;27;20047;-65
2023/05/14 09:26:50;;;;;;;14.35;5.47;;;;;;;;;;5082196;28;20549;-65
2023/05/14 09:29:17;;;;;;;14.60;6.72;;;;;;;;;;5075674;28;20112;-65
2023/05/14 09:31:43;;;;;;;10.48;5.72;;;;;;;;;;5073963;28;20048;-65
2023/05/14 09:34:09;;;;;;;13.10;5.43;;;;;;;;;;5070862;28;20078;-65
2023/05/14 09:36:36;;;;;;;13.52;5.18;;;;;;;;;;5068286;28;20120;-65
2023/05/14 09:39:04;;;;;;;13.63;5.75;;;;;;;;;;5070205;28;20075;-65
2023/05/14 09:41:30;;;;;;;12.88;5.80;;;;;;;;;;5068293;28;20535;-66
2023/05/14 09:43:57;;;;;;;12.50;5.97;;;;;;;;;;5069092;28;20278;-65
2023/05/14 09:46:28;;;;;;;13.50;5.95;;;;;;;;;;5075473;28;20048;-65
2023/05/14 09:48:55;;;;;;;13.07;6.07;;;;;;;;;;5073614;28;20051;-65
2023/05/14 09:51:22;;;;;;;12.65;5.70;;;;;;;;;;5067781;28;20490;-65
2023/05/14 09:53:48;;;;;;;15.63;6.38;;;;;;;;;;5073730;28;20051;-64
2023/05/14 09:56:15;;;;;;;17.13;5.85;;;;;;;;;;5078336;28;20123;-64
2023/05/14 09:58:41;;;;;;;10.90;6.03;;;;;;;;;;5076465;28;20466;-64
2023/05/14 10:01:07;;;;;;;11.73;5.70;;;;;;;;;;5076231;28;20320;-64
2023/05/14 10:03:34;;;;;;;13.70;6.28;;;;;;;;;;5071445;28;20156;-63
2023/05/14 10:06:04;;;;;;;12.95;6.90;;;;;;;;;;5073645;28;20488;-64
2023/05/14 10:08:33;;;;;;;14.60;7.65;;;;;;;;;;5081867;28;20036;-64
2023/05/14 10:11:01;;;;;;;16.08;6.95;;;;;;;;;;5073720;28;20040;-64
2023/05/14 10:13:30;;;;;;;13.88;6.55;;;;;;;;;;5072679;28;20043;-64
2023/05/14 10:16:01;;;;;;;13.80;5.90;;;;;;;;;;5067398;28;20395;-64
2023/05/14 10:18:30;;;;;;;15.23;6.57;;;;;;;;;;5071600;28;20044;-64
2023/05/14 10:21:05;;;;;;;13.55;7.30;;;;;;;;;;5071633;28;20051;-64
2023/05/14 10:23:31;;;;;;;12.60;6.25;;;;;;;;;;5073231;28;20048;-64
2023/05/14 10:25:58;;;;;;;11.23;5.22;;;;;;;;;;5069558;28;20037;-64
2023/05/14 10:28:24;;;;;;;13.77;6.45;;;;;;;;;;5076005;28;20128;-64
2023/05/14 10:30:50;;;;;;;17.20;6.10;;;;;;;;;;5072495;28;20055;-64
2023/05/14 10:33:17;;;;;;;9.73;5.35;;;;;;;;;;5076885;28;20044;-64
2023/05/14 10:35:52;;;;;;;12.75;6.40;;;;;;;;;;5090251;27;20047;-64
2023/05/14 10:38:21;;;;;;;12.32;5.35;;;;;;;;;;5090751;28;20936;-64
2023/05/14 10:40:48;;;;;;;12.52;5.57;;;;;;;;;;5092064;28;20923;-64
2023/05/14 10:43:15;;;;;;;11.02;5.65;;;;;;;;;;5093206;27;20035;-64
2023/05/14 10:45:43;;;;;;;11.40;5.65;;;;;;;;;;5090482;28;20036;-64
2023/05/14 10:48:09;;;;;;;13.65;5.90;;;;;;;;;;5091980;27;20040;-64
2023/05/14 10:50:36;;;;;;;11.52;5.60;;;;;;;;;;5073879;28;20407;-64
2023/05/14 10:53:02;;;;;;;12.15;5.78;;;;;;;;;;5091176;28;20051;-64
2023/05/14 10:55:28;;;;;;;10.38;5.20;;;;;;;;;;5092167;27;20817;-63
2023/05/14 10:58:00;;;;;;;12.35;5.55;;;;;;;;;;5074069;28;20451;-64
2023/05/14 11:00:26;;;;;;;12.13;5.53;;;;;;;;;;5075016;28;20421;-64
2023/05/14 11:02:56;;;;;;;9.88;5.45;;;;;;;;;;5092313;28;20044;-64
2023/05/14 11:05:26;;;;;;;11.43;6.07;;;;;;;;;;5092689;27;20108;-64
2023/05/14 11:07:55;;;;;;;10.90;5.45;;;;;;;;;;5096465;27;20043;-64
2023/05/14 11:10:22;;;;;;;10.55;6.32;;;;;;;;;;5091571;27;21209;-64
2023/05/14 11:12:49;;;;;;;13.05;6.03;;;;;;;;;;5070650;28;20188;-64
2023/05/14 11:15:17;;;;;;;11.45;5.13;;;;;;;;;;5092301;27;20119;-64
2023/05/14 11:17:44;;;;;;;9.38;5.18;;;;;;;;;;5057159;28;20647;-64
2023/05/14 11:20:10;;;;;;;13.02;4.95;;;;;;;;;;5077712;28;20130;-64
2023/05/14 11:22:37;;;;;;;9.90;5.53;;;;;;;;;;5088474;28;20040;-64
2023/05/14 11:25:05;;;;;;;11.77;5.50;;;;;;;;;;5070379;28;20181;-65
2023/05/14 11:27:33;;;;;;;10.98;6.15;;;;;;;;;;5072258;28;20516;-65
2023/05/14 11:30:01;;;;;;;10.45;5.30;;;;;;;;;;5091095;28;20495;-65
2023/05/14 11:32:27;;;;;;;13.15;4.97;;;;;;;;;;5073212;28;20081;-64
2023/05/14 11:34:53;;;;;;;9.93;5.20;;;;;;;;;;5091468;28;20059;-65
2023/05/14 11:37:19;;;;;;;9.95;5.03;;;;;;;;;;5069577;28;20467;-65
2023/05/14 11:39:47;;;;;;;11.05;5.30;;;;;;;;;;5090795;27;20858;-64
2023/05/14 11:42:16;;;;;;;11.25;5.10;;;;;;;;;;5089865;28;20054;-64
2023/05/14 11:44:43;;;;;;;10.52;5.22;;;;;;;;;;5091368;28;20131;-65
2023/05/14 11:47:10;;;;;;;7.22;4.40;;;;;;;;;;5093125;28;20152;-65
2023/05/14 11:49:36;;;;;;;9.90;5.45;;;;;;;;;;5072286;28;20083;-65
2023/05/14 11:52:04;;;;;;;11.90;5.10;;;;;;;;;;5092763;28;20059;-65
2023/05/14 11:54:31;;;;;;;11.73;5.13;;;;;;;;;;5093546;28;20126;-64
2023/05/14 11:56:58;;;;;;;9.02;4.45;;;;;;;;;;5071980;28;20040;-64
2023/05/14 11:59:25;;;;;;;9.55;4.50;;;;;;;;;;5074614;28;20452;-65
2023/05/14 12:01:51;;;;;;;11.00;5.00;;;;;;;;;;5091840;28;20043;-65
2023/05/14 12:04:21;;;;;;;11.95;4.82;;;;;;;;;;5089596;28;20048;-64
2023/05/14 12:06:48;;;;;;;10.57;5.10;;;;;;;;;;5097465;28;20506;-65
2023/05/14 12:09:16;;;;;;;8.23;4.18;;;;;;;;;;5090807;28;20054;-65
2023/05/14 12:11:44;;;;;;;10.60;4.47;;;;;;;;;;5071201;28;20150;-65
2023/05/14 12:14:11;;;;;;;12.27;5.30;;;;;;;;;;5091764;28;20108;-65
2023/05/14 12:16:40;;;;;;;7.70;4.32;;;;;;;;;;5073357;28;20059;-65
2023/05/14 12:19:08;;;;;;;8.15;4.00;;;;;;;;;;5090711;28;20065;-65
2023/05/14 12:21:35;;;;;;;9.73;4.38;;;;;;;;;;5090642;28;20449;-65
2023/05/14 12:24:01;;;;;;;9.07;4.72;;;;;;;;;;5093042;28;20039;-65
2023/05/14 12:26:28;;;;;;;15.45;5.22;;;;;;;;;;5092093;28;20139;-65
2023/05/14 12:29:00;;;;;;;10.25;4.75;;;;;;;;;;5094665;28;20036;-65
2023/05/14 12:31:29;;;;;;;12.65;4.78;;;;;;;;;;5094846;28;20064;-65
2023/05/14 12:33:55;;;;;;;14.15;4.68;;;;;;;;;;5099442;28;20055;-64
2023/05/14 12:36:21;;;;;;;16.00;4.80;;;;;;;;;;5074035;28;20479;-65
2023/05/14 12:38:48;;;;;;;26.48;7.45;;;;;;;;;;5095724;28;20067;-65
2023/05/14 12:41:14;;;;;;;6.63;3.80;;;;;;;;;;5076941;28;20044;-65
2023/05/14 12:43:42;;;;;;;11.07;4.47;;;;;;;;;;5093218;27;20107;-65
2023/05/14 12:46:08;;;;;;;7.55;4.32;;;;;;;;;;5074858;27;20480;-65
2023/05/14 12:48:34;;;;;;;12.27;4.22;;;;;;;;;;5077884;28;20040;-65
2023/05/14 12:51:00;;;;;;;15.15;4.97;;;;;;;;;;5094606;27;20077;-65
2023/05/14 12:53:27;;;;;;;22.52;5.45;;;;;;;;;;5093068;27;20124;-65
2023/05/14 12:55:54;;;;;;;10.65;3.95;;;;;;;;;;5075188;28;20090;-65
2023/05/14 12:58:20;;;;;;;16.35;4.78;;;;;;;;;;5094122;27;20048;-69
2023/05/14 13:00:46;;;;;;;13.80;4.28;;;;;;;;;;5074539;28;20487;-67
2023/05/14 13:03:12;;;;;;;30.20;5.18;;;;;;;;;;5073357;28;20048;-65
2023/05/14 13:05:38;;;;;;;8.00;4.28;;;;;;;;;;5095861;27;20075;-65
2023/05/14 13:08:05;;;;;;;10.60;4.38;;;;;;;;;;5079689;28;20512;-65
2023/05/14 13:10:31;;;;;;;7.07;3.72;;;;;;;;;;5093109;28;20100;-65
2023/05/14 13:12:57;;;;;;;8.30;3.85;;;;;;;;;;5094025;27;20129;-65
2023/05/14 13:15:23;;;;;;;9.60;4.38;;;;;;;;;;5096208;28;20100;-65
2023/05/14 13:17:49;;;;;;;9.13;4.30;;;;;;;;;;5094147;28;20044;-65
2023/05/14 13:20:17;;;;;;;10.38;4.78;;;;;;;;;;5092715;28;20506;-65
2023/05/14 13:22:43;;;;;;;9.85;5.43;;;;;;;;;;5074173;28;20039;-65
2023/05/14 13:25:10;;;;;;;11.35;4.63;;;;;;;;;;5073834;28;20047;-65
2023/05/14 13:27:36;;;;;;;8.38;4.38;;;;;;;;;;5071504;28;20048;-65
2023/05/14 13:30:03;;;;;;;10.32;4.32;;;;;;;;;;5092321;28;20463;-65
2023/05/14 13:32:29;;;;;;;9.15;5.20;;;;;;;;;;5090923;27;20036;-65
2023/05/14 13:34:55;;;;;;;13.25;6.40;;;;;;;;;;5097742;27;20493;-65
2023/05/14 13:37:22;;;;;;;14.80;7.35;;;;;;;;;;5084809;28;20120;-65
2023/05/14 13:39:48;;;;;;;14.95;7.38;;;;;;;;;;5089480;27;20047;-65
2023/05/14 13:42:14;;;;;;;14.70;7.75;;;;;;;;;;5076086;28;20043;-66
2023/05/14 13:44:40;;;;;;;12.02;7.45;;;;;;;;;;5098555;28;20040;-66
2023/05/14 13:47:07;;;;;;;15.63;7.93;;;;;;;;;;5095286;28;20045;-66
2023/05/14 13:49:33;;;;;;;11.60;8.27;;;;;;;;;;5077388;28;20386;-64
2023/05/14 13:51:59;;;;;;;12.60;7.82;;;;;;;;;;5094519;28;20130;-65
2023/05/14 13:54:25;;;;;;;13.55;8.10;;;;;;;;;;5078457;28;20112;-66
2023/05/14 13:56:51;;;;;;;15.73;7.93;;;;;;;;;;5095353;27;20148;-65
2023/05/14 13:59:18;;;;;;;12.60;9.15;;;;;;;;;;5092643;27;20478;-65
2023/05/14 14:01:44;;;;;;;15.35;9.10;;;;;;;;;;5090112;27;20036;-65
2023/05/14 14:04:10;;;;;;;14.43;8.57;;;;;;;;;;5073862;28;20054;-65
2023/05/14 14:06:36;;;;;;;15.27;9.93;;;;;;;;;;5078806;28;20055;-65
2023/05/14 14:09:03;;;;;;;17.23;9.63;;;;;;;;;;5082968;28;20040;-65
2023/05/14 14:11:29;;;;;;;13.40;8.50;;;;;;;;;;5082771;28;20063;-65
2023/05/14 14:13:55;;;;;;;12.32;8.68;;;;;;;;;;5096701;28;20035;-65
2023/05/14 14:16:21;;;;;;;14.80;8.60;;;;;;;;;;5078360;28;20506;-65
2023/05/14 14:18:47;;;;;;;13.45;9.48;;;;;;;;;;5079923;28;20037;-65
2023/05/14 14:21:16;;;;;;;15.13;9.38;;;;;;;;;;5094779;27;20054;-65
2023/05/14 14:23:43;;;;;;;12.80;8.73;;;;;;;;;;5093317;28;20424;-65
2023/05/14 14:26:09;;;;;;;17.67;9.35;;;;;;;;;;5095171;28;20036;-65